Terminal Aerodrome Forecast
Issued by NWS Cheyenne, WY

Home | Current Version | Previous Version | Text Only | Print | Product List | Glossary On
Versions: 1 2 3 4 5 6 7 8 9 10 11 12 13 14 15 16 17 18 19
000
FTUS45 KCYS 201720
TAFCYS
TAF
KCYS 201720Z 2018/2118 28035G48KT P6SM BKN150
     FM210000 29025G33KT P6SM BKN150
     FM210600 30025G40KT P6SM BKN100=

USA.gov is the U.S. government's official web portal to all federal, state and local government web resources and services.